Time;durP1;ratioP1;P1;durP2;ratioP2;P2;SDS_P1;SDS_P2;PMS_P1;PMS_P2;Temp;Humidity;BMP_temperature;BMP_pressure;BME280_temperature;BME280_humidity;BME280_pressure;Samples;Min_cycle;Max_cycle;Signal;HPM_P1;HPM_P2
2021/08/21 00:01:27;;;;;;;;;;;24.70;46.70;;;;;;8367545;28;20293;-45
2021/08/21 00:05:27;;;;;;;;;;;24.70;46.70;;;;;;8367061;28;19913;-45
2021/08/21 00:09:28;;;;;;;;;;;24.70;46.70;;;;;;8368211;28;19943;-44
2021/08/21 00:13:28;;;;;;;;;;;24.70;46.70;;;;;;8367238;28;20476;-44
2021/08/21 00:17:28;;;;;;;;;;;24.60;46.70;;;;;;8365971;28;19924;-44
2021/08/21 00:21:29;;;;;;;;;;;24.60;46.70;;;;;;8366871;28;19921;-45
2021/08/21 00:25:29;;;;;;;;;;;24.60;46.70;;;;;;8367588;28;19916;-45
2021/08/21 00:29:31;;;;;;;;;;;24.60;46.70;;;;;;8366275;28;20321;-45
2021/08/21 00:33:31;;;;;;;;;;;24.60;46.70;;;;;;8366693;28;19917;-45
2021/08/21 00:37:32;;;;;;;;;;;24.60;46.70;;;;;;8366455;28;19913;-45
2021/08/21 00:41:33;;;;;;;;;;;24.60;46.70;;;;;;8366622;28;19925;-45
2021/08/21 00:45:34;;;;;;;;;;;24.60;46.70;;;;;;8366522;28;19921;-44
2021/08/21 00:49:35;;;;;;;;;;;24.60;46.70;;;;;;8366147;28;19921;-44
2021/08/21 00:53:35;;;;;;;;;;;24.60;46.70;;;;;;8365804;28;20008;-45
2021/08/21 00:57:36;;;;;;;;;;;24.60;46.70;;;;;;8365974;28;20385;-46
2021/08/21 01:01:37;;;;;;;;;;;24.60;46.70;;;;;;8366509;28;19983;-45
2021/08/21 01:05:38;;;;;;;;;;;24.60;47.30;;;;;;8365209;28;19916;-44
2021/08/21 01:09:40;;;;;;;;;;;24.50;46.70;;;;;;8365586;28;20007;-45
2021/08/21 01:13:40;;;;;;;;;;;24.50;46.70;;;;;;8365459;28;20412;-45
2021/08/21 01:17:40;;;;;;;;;;;24.50;46.70;;;;;;8365552;28;19928;-47
2021/08/21 01:21:41;;;;;;;;;;;24.50;46.70;;;;;;8365272;28;19960;-45
2021/08/21 01:25:41;;;;;;;;;;;24.50;46.70;;;;;;8365216;28;19955;-45
2021/08/21 01:29:42;;;;;;;;;;;24.50;46.70;;;;;;8363497;28;19924;-45
2021/08/21 01:33:42;;;;;;;;;;;24.50;46.70;;;;;;8364927;28;19913;-46
2021/08/21 01:37:43;;;;;;;;;;;24.50;46.80;;;;;;8365274;28;19924;-47
2021/08/21 01:41:44;;;;;;;;;;;24.50;46.80;;;;;;8364114;28;19931;-46
2021/08/21 01:45:45;;;;;;;;;;;24.50;46.80;;;;;;8364549;28;19913;-46
2021/08/21 01:49:53;;;;;;;;;;;24.50;46.80;;;;;;8364332;28;19921;-46
2021/08/21 01:53:55;;;;;;;;;;;24.50;46.80;;;;;;8364464;28;19912;-45
2021/08/21 01:57:56;;;;;;;;;;;24.40;46.70;;;;;;8364005;28;20011;-47
2021/08/21 02:01:57;;;;;;;;;;;24.50;46.80;;;;;;8363884;28;19928;-46
2021/08/21 02:05:57;;;;;;;;;;;24.50;46.80;;;;;;8363362;28;19924;-45
2021/08/21 02:09:58;;;;;;;;;;;24.50;46.80;;;;;;8364748;28;19921;-45
2021/08/21 02:13:58;;;;;;;;;;;24.40;46.80;;;;;;8363446;28;19963;-49
2021/08/21 02:17:58;;;;;;;;;;;24.40;46.80;;;;;;8364075;28;19924;-45
2021/08/21 02:22:00;;;;;;;;;;;24.40;46.80;;;;;;8363412;28;19927;-45
2021/08/21 02:26:01;;;;;;;;;;;24.40;46.80;;;;;;8363047;28;19924;-47
2021/08/21 02:30:02;;;;;;;;;;;24.40;46.80;;;;;;8364054;28;19919;-45
2021/08/21 02:34:02;;;;;;;;;;;24.40;46.80;;;;;;8363761;28;19916;-47
2021/08/21 02:38:03;;;;;;;;;;;24.30;46.80;;;;;;8362928;28;19996;-47
2021/08/21 02:42:04;;;;;;;;;;;24.40;46.80;;;;;;8367566;28;19921;-47
2021/08/21 02:46:04;;;;;;;;;;;24.40;46.80;;;;;;8370650;28;20343;-45
2021/08/21 02:50:05;;;;;;;;;;;24.30;46.80;;;;;;8369498;28;19917;-46
2021/08/21 02:54:05;;;;;;;;;;;24.30;46.80;;;;;;8369712;28;20381;-45
2021/08/21 02:58:06;;;;;;;;;;;24.30;46.80;;;;;;8369713;28;19916;-45
2021/08/21 03:02:07;;;;;;;;;;;24.30;46.80;;;;;;8369269;28;19925;-46
2021/08/21 03:06:08;;;;;;;;;;;24.30;46.90;;;;;;8369810;28;20007;-45
2021/08/21 03:10:08;;;;;;;;;;;24.30;46.90;;;;;;8369142;28;19921;-45
2021/08/21 03:14:09;;;;;;;;;;;24.30;46.90;;;;;;8369016;28;19913;-45
2021/08/21 03:18:09;;;;;;;;;;;24.30;46.90;;;;;;8369196;28;19913;-45
2021/08/21 03:22:10;;;;;;;;;;;24.30;46.90;;;;;;8369498;28;19931;-45
2021/08/21 03:26:12;;;;;;;;;;;24.30;46.90;;;;;;8368312;28;19924;-44
2021/08/21 03:30:13;;;;;;;;;;;24.30;46.90;;;;;;8368718;28;19917;-45
2021/08/21 03:34:13;;;;;;;;;;;24.20;46.80;;;;;;8368791;28;19917;-44
2021/08/21 03:38:14;;;;;;;;;;;24.20;46.90;;;;;;8368906;28;20429;-45
2021/08/21 03:42:15;;;;;;;;;;;24.20;46.90;;;;;;8368231;28;19928;-46
2021/08/21 03:46:16;;;;;;;;;;;24.20;46.90;;;;;;8368144;28;19916;-46
2021/08/21 03:50:16;;;;;;;;;;;24.20;47.40;;;;;;8367636;28;19917;-45
2021/08/21 03:54:17;;;;;;;;;;;24.20;46.90;;;;;;8366989;28;19917;-45
2021/08/21 03:58:17;;;;;;;;;;;24.20;46.90;;;;;;8368541;28;19941;-45
2021/08/21 04:02:18;;;;;;;;;;;24.20;46.90;;;;;;8367063;28;19937;-45
2021/08/21 04:06:19;;;;;;;;;;;24.20;46.90;;;;;;8367501;28;20342;-45
2021/08/21 04:10:20;;;;;;;;;;;24.20;46.90;;;;;;8367688;28;20427;-44
2021/08/21 04:14:20;;;;;;;;;;;24.10;46.90;;;;;;8367755;28;19920;-45
2021/08/21 04:18:21;;;;;;;;;;;24.10;46.90;;;;;;8367465;28;20015;-45
2021/08/21 04:22:21;;;;;;;;;;;24.10;46.90;;;;;;8366965;28;19925;-44
2021/08/21 04:26:22;;;;;;;;;;;24.10;46.90;;;;;;8366437;28;19921;-44
2021/08/21 04:30:22;;;;;;;;;;;24.10;46.90;;;;;;8367432;28;19979;-45
2021/08/21 04:34:23;;;;;;;;;;;24.10;46.90;;;;;;8366673;28;20381;-45
2021/08/21 04:38:23;;;;;;;;;;;24.10;46.90;;;;;;8366220;28;19920;-45
2021/08/21 04:42:24;;;;;;;;;;;24.10;46.90;;;;;;8366500;28;19986;-45
2021/08/21 04:46:24;;;;;;;;;;;24.10;47.40;;;;;;8366106;28;19912;-45
2021/08/21 04:50:25;;;;;;;;;;;24.10;46.90;;;;;;8366442;28;19948;-45
2021/08/21 04:54:26;;;;;;;;;;;24.00;46.90;;;;;;8366194;28;19959;-44
2021/08/21 04:58:26;;;;;;;;;;;24.10;47.00;;;;;;8365882;28;19916;-45
2021/08/21 05:02:27;;;;;;;;;;;24.00;46.90;;;;;;8364966;28;19932;-45
2021/08/21 05:06:27;;;;;;;;;;;24.00;46.90;;;;;;8366231;28;20046;-45
2021/08/21 05:10:28;;;;;;;;;;;24.00;46.90;;;;;;8365597;28;19920;-44
2021/08/21 05:14:29;;;;;;;;;;;24.00;46.90;;;;;;8364976;28;20315;-44
2021/08/21 05:18:34;;;;;;;;;;;24.00;46.90;;;;;;8365354;28;19913;-45
2021/08/21 05:27:01;;;;;;;;;;;24.00;46.90;;;;;;8349505;28;20039;-45
2021/08/21 05:31:01;;;;;;;;;;;24.00;46.90;;;;;;8364708;28;19917;-44
2021/08/21 05:35:02;;;;;;;;;;;24.00;46.90;;;;;;8364359;28;19913;-45
2021/08/21 05:39:05;;;;;;;;;;;24.00;46.90;;;;;;8364727;28;19920;-45
2021/08/21 05:43:06;;;;;;;;;;;24.00;46.90;;;;;;8364306;28;20289;-45
2021/08/21 05:47:06;;;;;;;;;;;24.00;46.90;;;;;;8363888;28;19923;-46
2021/08/21 05:51:07;;;;;;;;;;;24.00;46.90;;;;;;8364004;28;19921;-45
2021/08/21 05:55:08;;;;;;;;;;;24.00;46.90;;;;;;8363873;28;20405;-45
2021/08/21 05:59:08;;;;;;;;;;;24.00;46.90;;;;;;8363347;28;19917;-44
2021/08/21 06:03:08;;;;;;;;;;;24.00;46.90;;;;;;8364627;28;19955;-44
2021/08/21 06:07:09;;;;;;;;;;;24.00;46.90;;;;;;8363884;28;19971;-45
2021/08/21 06:11:09;;;;;;;;;;;24.00;46.90;;;;;;8363208;28;20449;-45
2021/08/21 06:15:10;;;;;;;;;;;24.00;46.90;;;;;;8363000;28;19917;-45
2021/08/21 06:19:11;;;;;;;;;;;24.00;46.90;;;;;;8364162;28;19916;-45
2021/08/21 06:23:11;;;;;;;;;;;24.00;46.90;;;;;;8363023;28;19921;-44
2021/08/21 06:27:12;;;;;;;;;;;24.00;46.90;;;;;;8363646;28;20400;-45
2021/08/21 06:31:12;;;;;;;;;;;24.00;46.90;;;;;;8363479;28;19917;-45
2021/08/21 06:35:13;;;;;;;;;;;23.90;46.80;;;;;;8363636;28;19913;-44
2021/08/21 06:39:13;;;;;;;;;;;23.90;46.80;;;;;;8363213;28;19917;-45
2021/08/21 06:43:14;;;;;;;;;;;23.90;46.80;;;;;;8363425;28;19917;-45
2021/08/21 06:47:14;;;;;;;;;;;23.90;46.80;;;;;;8362822;28;20008;-44
2021/08/21 06:51:15;;;;;;;;;;;23.90;46.80;;;;;;8363355;28;19932;-44
2021/08/21 06:55:15;;;;;;;;;;;24.00;46.90;;;;;;8363547;28;19913;-46
2021/08/21 06:59:16;;;;;;;;;;;24.00;46.90;;;;;;8362331;28;19916;-44
2021/08/21 07:03:16;;;;;;;;;;;24.00;46.80;;;;;;8363436;28;20329;-44
2021/08/21 07:07:16;;;;;;;;;;;24.00;46.70;;;;;;8363022;28;20117;-44
2021/08/21 07:11:17;;;;;;;;;;;24.00;46.70;;;;;;8362923;28;19924;-46
2021/08/21 07:15:17;;;;;;;;;;;24.00;46.70;;;;;;8362581;28;19921;-45
2021/08/21 07:19:18;;;;;;;;;;;24.00;46.70;;;;;;8362371;28;20365;-45
2021/08/21 07:23:18;;;;;;;;;;;24.00;46.70;;;;;;8362023;28;19924;-45
2021/08/21 07:27:19;;;;;;;;;;;24.00;46.70;;;;;;8365687;28;20038;-45
2021/08/21 07:31:19;;;;;;;;;;;24.00;47.30;;;;;;8369045;28;19913;-45
2021/08/21 07:35:20;;;;;;;;;;;24.00;46.70;;;;;;8367073;28;19917;-44
2021/08/21 07:39:21;;;;;;;;;;;24.00;46.80;;;;;;8366397;28;19971;-44
2021/08/21 07:43:21;;;;;;;;;;;24.00;46.70;;;;;;8368107;28;20316;-45
2021/08/21 07:47:22;;;;;;;;;;;24.00;46.70;;;;;;8368261;28;19939;-45
2021/08/21 07:51:22;;;;;;;;;;;24.00;46.70;;;;;;8368047;28;19978;-45
2021/08/21 07:55:23;;;;;;;;;;;24.00;46.70;;;;;;8367869;28;19923;-47
2021/08/21 07:59:23;;;;;;;;;;;24.00;46.80;;;;;;8367094;28;19932;-46
2021/08/21 08:03:24;;;;;;;;;;;24.00;46.80;;;;;;8368757;28;20369;-45
2021/08/21 08:07:24;;;;;;;;;;;24.00;46.80;;;;;;8367416;28;19928;-45
2021/08/21 08:11:25;;;;;;;;;;;24.00;46.80;;;;;;8366772;28;20003;-45
2021/08/21 08:15:25;;;;;;;;;;;24.00;46.80;;;;;;8367403;28;19921;-45
2021/08/21 08:19:26;;;;;;;;;;;24.00;46.90;;;;;;8367205;28;19924;-45
2021/08/21 08:23:26;;;;;;;;;;;24.10;46.90;;;;;;8366994;28;19959;-47
2021/08/21 08:27:27;;;;;;;;;;;24.00;46.90;;;;;;8366842;28;20464;-46
2021/08/21 08:31:27;;;;;;;;;;;24.10;46.90;;;;;;8366674;28;19921;-45
2021/08/21 08:35:27;;;;;;;;;;;24.10;46.90;;;;;;8366159;28;20000;-45
2021/08/21 08:39:28;;;;;;;;;;;24.10;46.90;;;;;;8366448;28;19917;-46
2021/08/21 08:43:28;;;;;;;;;;;24.10;46.90;;;;;;8366459;28;20434;-44
2021/08/21 08:47:29;;;;;;;;;;;24.10;47.00;;;;;;8365594;28;20341;-45
2021/08/21 08:51:31;;;;;;;;;;;24.10;47.00;;;;;;8365885;28;19964;-44
2021/08/21 08:55:32;;;;;;;;;;;24.10;47.00;;;;;;8366570;28;19920;-44
2021/08/21 08:59:33;;;;;;;;;;;24.10;47.00;;;;;;8363865;28;19920;-45
2021/08/21 09:03:34;;;;;;;;;;;24.10;47.00;;;;;;8365914;28;19925;-45
2021/08/21 09:07:39;;;;;;;;;;;24.20;47.00;;;;;;8365809;28;19933;-45
2021/08/21 09:11:40;;;;;;;;;;;24.20;47.00;;;;;;8364851;28;19923;-45
2021/08/21 09:15:42;;;;;;;;;;;24.20;47.00;;;;;;8366023;28;19913;-46
2021/08/21 09:19:42;;;;;;;;;;;24.20;47.00;;;;;;8365173;28;20267;-44
2021/08/21 09:23:44;;;;;;;;;;;24.20;47.00;;;;;;8364748;28;19916;-45
2021/08/21 09:27:45;;;;;;;;;;;24.30;47.10;;;;;;8364844;28;19917;-48
2021/08/21 09:31:46;;;;;;;;;;;24.30;47.10;;;;;;8365478;28;20271;-44
2021/08/21 09:35:46;;;;;;;;;;;24.30;47.00;;;;;;8364193;28;19917;-46
2021/08/21 09:39:47;;;;;;;;;;;24.30;47.10;;;;;;8364600;28;20003;-45
2021/08/21 09:43:47;;;;;;;;;;;24.30;47.00;;;;;;8364887;28;20012;-45
2021/08/21 09:47:48;;;;;;;;;;;24.30;47.00;;;;;;8363961;28;19915;-45
2021/08/21 09:51:49;;;;;;;;;;;24.30;47.00;;;;;;8363979;28;20278;-45
2021/08/21 09:55:50;;;;;;;;;;;24.30;47.00;;;;;;8364505;28;20277;-44
2021/08/21 09:59:56;;;;;;;;;;;24.30;47.00;;;;;;8363542;28;19921;-44
2021/08/21 10:03:57;;;;;;;;;;;24.40;47.10;;;;;;8367967;28;19948;-44
2021/08/21 10:08:01;;;;;;;;;;;24.40;47.10;;;;;;8364831;28;20382;-44
2021/08/21 10:12:02;;;;;;;;;;;24.40;47.00;;;;;;8363665;28;20007;-44
2021/08/21 10:16:06;;;;;;;;;;;24.40;47.00;;;;;;8363489;28;20392;-45
2021/08/21 10:20:07;;;;;;;;;;;24.50;47.00;;;;;;8363065;28;19932;-45
2021/08/21 10:24:07;;;;;;;;;;;24.50;46.90;;;;;;8364395;28;19916;-46
2021/08/21 10:28:09;;;;;;;;;;;24.50;46.90;;;;;;8363173;28;20012;-45
2021/08/21 10:32:29;;;;;;;;;;;24.60;47.00;;;;;;8362718;28;19917;-45
2021/08/21 10:36:42;;;;;;;;;;;24.60;46.90;;;;;;8363102;28;19970;-45
2021/08/21 10:40:42;;;;;;;;;;;24.60;46.90;;;;;;8362995;28;19994;-45
2021/08/21 10:44:44;;;;;;;;;;;24.60;46.90;;;;;;8363417;28;19913;-45
2021/08/21 10:48:44;;;;;;;;;;;24.60;46.90;;;;;;8363212;28;19916;-45
2021/08/21 10:52:46;;;;;;;;;;;24.60;46.90;;;;;;8362752;28;19917;-45
2021/08/21 10:56:47;;;;;;;;;;;24.60;46.90;;;;;;8362368;28;19939;-44
2021/08/21 11:00:53;;;;;;;;;;;24.60;46.90;;;;;;8363209;28;19925;-46
2021/08/21 11:04:55;;;;;;;;;;;24.60;46.90;;;;;;8370222;28;20293;-47
2021/08/21 11:08:56;;;;;;;;;;;24.60;46.90;;;;;;8369334;28;19959;-47
2021/08/21 11:12:57;;;;;;;;;;;24.70;46.90;;;;;;8369629;28;19948;-46
2021/08/21 11:17:00;;;;;;;;;;;24.70;46.90;;;;;;8368247;28;20388;-45
2021/08/21 11:21:20;;;;;;;;;;;24.70;46.90;;;;;;8336328;28;20346;-47
2021/08/21 11:25:24;;;;;;;;;;;24.70;46.90;;;;;;8322507;28;19948;-45
2021/08/21 11:29:24;;;;;;;;;;;24.70;46.90;;;;;;8355154;28;19917;-45
2021/08/21 11:33:25;;;;;;;;;;;24.80;46.90;;;;;;8347405;28;19917;-46
2021/08/21 11:37:29;;;;;;;;;;;24.80;46.90;;;;;;8368371;28;20366;-46
2021/08/21 11:41:29;;;;;;;;;;;24.80;46.90;;;;;;8368584;28;20346;-45
2021/08/21 11:45:31;;;;;;;;;;;24.80;46.80;;;;;;8368173;28;19917;-46
2021/08/21 11:49:31;;;;;;;;;;;24.80;46.80;;;;;;8368055;28;20316;-45
2021/08/21 11:53:33;;;;;;;;;;;24.90;46.80;;;;;;8367387;28;19924;-45
2021/08/21 11:57:40;;;;;;;;;;;24.90;46.80;;;;;;8368458;28;19913;-47
2021/08/21 12:01:56;;;;;;;;;;;24.90;46.80;;;;;;8367561;28;19924;-45
2021/08/21 12:05:57;;;;;;;;;;;24.90;46.80;;;;;;8367277;28;20381;-45
2021/08/21 12:09:58;;;;;;;;;;;24.90;46.70;;;;;;8367657;28;19960;-45
2021/08/21 12:13:59;;;;;;;;;;;24.90;46.70;;;;;;8366396;28;19928;-45
2021/08/21 12:18:01;;;;;;;;;;;25.00;46.80;;;;;;8333932;28;25639;-45
2021/08/21 12:22:03;;;;;;;;;;;25.00;46.70;;;;;;8334051;28;19925;-46
2021/08/21 12:26:04;;;;;;;;;;;25.00;46.70;;;;;;8333609;28;19913;-44
2021/08/21 12:30:09;;;;;;;;;;;25.00;46.70;;;;;;8333899;28;19918;-44
2021/08/21 12:34:15;;;;;;;;;;;25.00;46.70;;;;;;8334697;28;19913;-45
2021/08/21 12:38:18;;;;;;;;;;;25.00;46.70;;;;;;8333914;28;19918;-45
2021/08/21 12:42:21;;;;;;;;;;;25.00;46.60;;;;;;8333626;28;19928;-45
2021/08/21 12:46:22;;;;;;;;;;;25.10;46.60;;;;;;8333554;28;19913;-45
2021/08/21 12:50:22;;;;;;;;;;;25.10;46.70;;;;;;8332772;28;19925;-45
2021/08/21 12:54:27;;;;;;;;;;;25.10;46.60;;;;;;8333702;28;19924;-45
2021/08/21 12:58:27;;;;;;;;;;;25.10;46.60;;;;;;8333269;28;19917;-45
2021/08/21 13:02:38;;;;;;;;;;;25.20;46.70;;;;;;8332242;28;19971;-45
2021/08/21 13:06:39;;;;;;;;;;;25.10;46.60;;;;;;8332714;28;19940;-45
2021/08/21 13:10:39;;;;;;;;;;;25.20;46.70;;;;;;8332524;28;20008;-44
2021/08/21 13:14:40;;;;;;;;;;;25.20;46.60;;;;;;8332529;28;20298;-44
2021/08/21 13:18:40;;;;;;;;;;;25.20;46.60;;;;;;8332323;28;19917;-44
2021/08/21 13:22:41;;;;;;;;;;;25.20;46.60;;;;;;8332160;28;19983;-45
2021/08/21 13:26:42;;;;;;;;;;;25.20;46.60;;;;;;8331406;28;19964;-45
2021/08/21 13:30:42;;;;;;;;;;;25.20;46.60;;;;;;8332511;28;20282;-44
2021/08/21 13:34:43;;;;;;;;;;;25.20;46.60;;;;;;8331846;28;19925;-44
2021/08/21 13:38:43;;;;;;;;;;;25.20;46.60;;;;;;8331448;28;20370;-45
2021/08/21 13:42:44;;;;;;;;;;;25.30;46.60;;;;;;8331510;28;19921;-44
2021/08/21 13:46:44;;;;;;;;;;;25.30;46.70;;;;;;8332239;28;19917;-45
2021/08/21 13:50:45;;;;;;;;;;;25.30;46.60;;;;;;8330903;28;20393;-45
2021/08/21 13:54:45;;;;;;;;;;;25.30;46.70;;;;;;8331236;28;19918;-45
2021/08/21 13:58:46;;;;;;;;;;;25.30;46.60;;;;;;8330603;28;20318;-44
2021/08/21 14:02:46;;;;;;;;;;;25.30;46.60;;;;;;8323584;28;19925;-44
2021/08/21 14:06:47;;;;;;;;;;;25.40;46.60;;;;;;8341163;28;19924;-45
2021/08/21 14:10:47;;;;;;;;;;;25.50;46.80;;;;;;8347042;28;19928;-45
2021/08/21 14:14:50;;;;;;;;;;;25.70;46.50;;;;;;8362366;28;19921;-45
2021/08/21 14:18:51;;;;;;;;;;;25.80;46.40;;;;;;8363591;28;20444;-46
2021/08/21 14:22:51;;;;;;;;;;;25.90;46.10;;;;;;8352818;28;19928;-44
2021/08/21 14:26:52;;;;;;;;;;;26.00;46.00;;;;;;8351697;28;19916;-44
2021/08/21 14:30:52;;;;;;;;;;;26.10;46.60;;;;;;8363387;28;19917;-45
2021/08/21 14:34:53;;;;;;;;;;;26.10;46.10;;;;;;8350740;28;20366;-45
2021/08/21 14:38:54;;;;;;;;;;;26.20;46.00;;;;;;8358223;28;20020;-46
2021/08/21 14:42:54;;;;;;;;;;;26.30;45.30;;;;;;8360333;28;19935;-45
2021/08/21 14:46:55;;;;;;;;;;;26.30;46.30;;;;;;8358613;28;19924;-46
2021/08/21 14:50:55;;;;;;;;;;;26.40;46.20;;;;;;8362403;28;19963;-46
2021/08/21 14:54:56;;;;;;;;;;;26.40;46.30;;;;;;8355468;28;19925;-46
2021/08/21 14:58:56;;;;;;;;;;;26.40;46.10;;;;;;8352995;28;19917;-45
2021/08/21 15:02:57;;;;;;;;;;;26.50;46.00;;;;;;8349574;28;19925;-45
2021/08/21 15:06:57;;;;;;;;;;;26.50;45.20;;;;;;8359860;28;19917;-45
2021/08/21 15:10:58;;;;;;;;;;;26.70;45.20;;;;;;8342113;28;19928;-45
2021/08/21 15:14:58;;;;;;;;;;;26.60;45.30;;;;;;8336288;28;19947;-46
2021/08/21 15:18:59;;;;;;;;;;;26.70;45.40;;;;;;8355464;28;19928;-46
2021/08/21 15:23:00;;;;;;;;;;;26.70;45.60;;;;;;8348957;28;19933;-45
2021/08/21 15:27:03;;;;;;;;;;;26.70;45.60;;;;;;8351820;28;19927;-45
2021/08/21 15:31:07;;;;;;;;;;;26.70;45.50;;;;;;8351861;28;20533;-46
2021/08/21 15:35:07;;;;;;;;;;;26.70;44.80;;;;;;8347143;28;20019;-45
2021/08/21 15:39:09;;;;;;;;;;;26.70;45.40;;;;;;8351895;28;19986;-45
2021/08/21 15:43:09;;;;;;;;;;;26.70;45.40;;;;;;8348630;28;19929;-43
2021/08/21 15:47:10;;;;;;;;;;;26.70;45.80;;;;;;8338783;28;19935;-46
2021/08/21 15:51:11;;;;;;;;;;;26.80;46.10;;;;;;8350908;28;19928;-46
2021/08/21 15:55:11;;;;;;;;;;;26.80;45.90;;;;;;8354782;28;20648;-45
2021/08/21 15:59:12;;;;;;;;;;;26.80;46.60;;;;;;8356289;28;19943;-46
2021/08/21 16:03:12;;;;;;;;;;;26.70;46.20;;;;;;8357165;28;19929;-45
2021/08/21 16:07:13;;;;;;;;;;;26.80;45.90;;;;;;8357754;28;19924;-44
2021/08/21 16:11:13;;;;;;;;;;;26.70;45.60;;;;;;8356570;28;19927;-43
2021/08/21 16:15:15;;;;;;;;;;;26.80;45.50;;;;;;8357131;28;19921;-44
2021/08/21 16:19:16;;;;;;;;;;;26.80;45.30;;;;;;8356674;28;19921;-43
2021/08/21 16:23:16;;;;;;;;;;;26.80;45.70;;;;;;8353173;28;20437;-44
2021/08/21 16:27:20;;;;;;;;;;;26.80;45.80;;;;;;8356790;28;19936;-45
2021/08/21 16:31:20;;;;;;;;;;;26.80;45.80;;;;;;8356453;28;19921;-45
2021/08/21 16:35:21;;;;;;;;;;;26.80;46.10;;;;;;8355852;28;19921;-45
2021/08/21 16:39:21;;;;;;;;;;;26.80;46.40;;;;;;8353356;28;19929;-44
2021/08/21 16:43:22;;;;;;;;;;;26.80;46.40;;;;;;8357018;28;19932;-43
2021/08/21 16:47:23;;;;;;;;;;;26.80;46.60;;;;;;8354618;28;19928;-44
2021/08/21 16:51:24;;;;;;;;;;;26.80;46.60;;;;;;8355850;28;20335;-45
2021/08/21 16:55:24;;;;;;;;;;;26.80;46.70;;;;;;8355507;28;20795;-43
2021/08/21 16:59:25;;;;;;;;;;;26.90;46.90;;;;;;8355206;28;19917;-44
2021/08/21 17:03:25;;;;;;;;;;;26.90;46.80;;;;;;8355502;28;19929;-44
2021/08/21 17:07:26;;;;;;;;;;;26.80;47.00;;;;;;8355480;28;19931;-45
2021/08/21 17:11:26;;;;;;;;;;;26.90;47.10;;;;;;8354768;28;20297;-44
2021/08/21 17:15:27;;;;;;;;;;;26.90;47.30;;;;;;8355153;28;20378;-43
2021/08/21 17:19:27;;;;;;;;;;;26.80;47.90;;;;;;8355712;28;19916;-45
2021/08/21 17:23:28;;;;;;;;;;;26.80;47.70;;;;;;8353978;28;19956;-45
2021/08/21 17:27:28;;;;;;;;;;;26.80;47.80;;;;;;8354786;28;19925;-43
2021/08/21 17:31:28;;;;;;;;;;;26.80;48.30;;;;;;8383701;28;19925;-43
2021/08/21 17:35:29;;;;;;;;;;;26.70;48.30;;;;;;8359815;28;19916;-45
2021/08/21 17:39:29;;;;;;;;;;;26.70;48.50;;;;;;8355043;28;19972;-46
2021/08/21 17:43:30;;;;;;;;;;;26.70;49.00;;;;;;8346892;28;19928;-46
2021/08/21 17:47:30;;;;;;;;;;;26.70;49.50;;;;;;8331068;28;19998;-45
2021/08/21 17:51:31;;;;;;;;;;;26.60;49.50;;;;;;8356724;28;19917;-46
2021/08/21 17:55:31;;;;;;;;;;;26.70;49.20;;;;;;8356605;28;19962;-46
2021/08/21 17:59:32;;;;;;;;;;;26.70;49.20;;;;;;8353750;28;19928;-45
2021/08/21 18:03:33;;;;;;;;;;;26.70;48.90;;;;;;8343017;28;20362;-44
2021/08/21 18:07:34;;;;;;;;;;;26.60;49.50;;;;;;8343048;28;19960;-46
2021/08/21 18:11:35;;;;;;;;;;;26.50;49.00;;;;;;8323674;28;19917;-46
2021/08/21 18:15:36;;;;;;;;;;;26.60;49.00;;;;;;8339332;28;20008;-45
2021/08/21 18:19:36;;;;;;;;;;;26.60;48.90;;;;;;8346703;28;19931;-46
2021/08/21 18:23:40;;;;;;;;;;;26.60;48.80;;;;;;8357561;28;19928;-46
2021/08/21 18:27:40;;;;;;;;;;;26.60;48.70;;;;;;8358759;28;19924;-46
2021/08/21 18:31:41;;;;;;;;;;;26.60;48.70;;;;;;8357770;28;19964;-46
2021/08/21 18:35:41;;;;;;;;;;;26.60;48.60;;;;;;8357178;28;19928;-47
2021/08/21 18:39:42;;;;;;;;;;;26.60;48.60;;;;;;8357514;28;19920;-50
2021/08/21 18:43:42;;;;;;;;;;;26.50;48.50;;;;;;8357443;28;19924;-47
2021/08/21 18:47:43;;;;;;;;;;;26.60;48.50;;;;;;8357530;28;19916;-46
2021/08/21 18:51:43;;;;;;;;;;;26.50;48.40;;;;;;8357317;28;20378;-46
2021/08/21 18:55:44;;;;;;;;;;;26.50;48.40;;;;;;8357235;28;19943;-46
2021/08/21 18:59:45;;;;;;;;;;;26.50;48.40;;;;;;8356637;28;19921;-47
2021/08/21 19:03:45;;;;;;;;;;;26.50;48.40;;;;;;8357824;28;20270;-46
2021/08/21 19:07:46;;;;;;;;;;;26.50;48.40;;;;;;8357277;28;19954;-46
2021/08/21 19:11:46;;;;;;;;;;;26.50;48.30;;;;;;8357036;28;19921;-46
2021/08/21 19:15:47;;;;;;;;;;;26.50;48.30;;;;;;8357110;28;19921;-46
2021/08/21 19:19:48;;;;;;;;;;;26.50;48.30;;;;;;8357275;28;19924;-46
2021/08/21 19:23:48;;;;;;;;;;;26.50;48.30;;;;;;8360214;28;19931;-46
2021/08/21 19:27:49;;;;;;;;;;;26.40;48.30;;;;;;8363480;28;19931;-46
2021/08/21 19:31:49;;;;;;;;;;;26.50;48.30;;;;;;8362936;28;20384;-45
2021/08/21 19:35:50;;;;;;;;;;;26.50;48.30;;;;;;8362522;28;19964;-45
2021/08/21 19:39:50;;;;;;;;;;;26.40;48.20;;;;;;8363610;28;19920;-48
2021/08/21 19:43:51;;;;;;;;;;;26.40;48.20;;;;;;8362716;28;20267;-45
2021/08/21 19:47:51;;;;;;;;;;;26.40;48.20;;;;;;8362137;28;19927;-46
2021/08/21 19:51:52;;;;;;;;;;;26.40;48.20;;;;;;8365437;28;20378;-46
2021/08/21 19:55:53;;;;;;;;;;;26.40;48.20;;;;;;8368294;28;20297;-47
2021/08/21 19:59:53;;;;;;;;;;;26.40;48.20;;;;;;8366939;28;19925;-45
2021/08/21 20:03:54;;;;;;;;;;;26.40;48.20;;;;;;8367542;28;19927;-46
2021/08/21 20:07:55;;;;;;;;;;;26.40;48.20;;;;;;8367443;28;19979;-48
2021/08/21 20:11:56;;;;;;;;;;;26.40;48.20;;;;;;8366825;28;20255;-46
2021/08/21 20:15:56;;;;;;;;;;;26.40;48.20;;;;;;8367762;28;19952;-46
2021/08/21 20:19:57;;;;;;;;;;;26.40;48.20;;;;;;8366779;28;19925;-46
2021/08/21 20:23:57;;;;;;;;;;;26.40;48.20;;;;;;8366264;28;19996;-46
2021/08/21 20:27:58;;;;;;;;;;;26.30;48.10;;;;;;8366779;28;19974;-46
2021/08/21 20:31:59;;;;;;;;;;;26.30;48.10;;;;;;8367190;28;20336;-47
2021/08/21 20:35:59;;;;;;;;;;;26.30;48.10;;;;;;8365465;28;20401;-47
2021/08/21 20:40:00;;;;;;;;;;;26.30;48.10;;;;;;8366235;28;19924;-47
2021/08/21 20:44:00;;;;;;;;;;;26.30;48.10;;;;;;8365589;28;19916;-47
2021/08/21 20:48:01;;;;;;;;;;;26.30;48.10;;;;;;8366887;28;20385;-47
2021/08/21 20:52:02;;;;;;;;;;;26.30;48.10;;;;;;8365905;28;20388;-46
2021/08/21 20:56:02;;;;;;;;;;;26.30;48.10;;;;;;8365166;28;20289;-46
2021/08/21 21:00:03;;;;;;;;;;;26.30;48.10;;;;;;8365795;28;19929;-46
2021/08/21 21:04:04;;;;;;;;;;;26.30;48.00;;;;;;8365539;28;19913;-47
2021/08/21 21:08:04;;;;;;;;;;;26.30;48.10;;;;;;8365538;28;19948;-47
2021/08/21 21:12:05;;;;;;;;;;;26.20;48.50;;;;;;8365201;28;19986;-46
2021/08/21 21:16:06;;;;;;;;;;;26.30;48.10;;;;;;8365226;28;19916;-48
2021/08/21 21:20:06;;;;;;;;;;;26.30;48.00;;;;;;8364403;28;20399;-48
2021/08/21 21:24:07;;;;;;;;;;;26.20;48.00;;;;;;8365397;28;19913;-48
2021/08/21 21:28:07;;;;;;;;;;;26.20;48.00;;;;;;8364513;28;19917;-51
2021/08/21 21:32:08;;;;;;;;;;;26.20;48.00;;;;;;8363986;28;20289;-49
2021/08/21 21:36:09;;;;;;;;;;;26.20;48.00;;;;;;8364441;28;19920;-49
2021/08/21 21:40:10;;;;;;;;;;;26.20;48.00;;;;;;8365091;28;20408;-47
2021/08/21 21:44:11;;;;;;;;;;;26.20;48.00;;;;;;8363790;28;19970;-50
2021/08/21 21:48:11;;;;;;;;;;;26.20;48.00;;;;;;8363924;28;19971;-49
2021/08/21 21:52:12;;;;;;;;;;;26.20;48.00;;;;;;8363915;28;20004;-46
2021/08/21 21:56:12;;;;;;;;;;;26.20;48.00;;;;;;8363273;28;19974;-47
2021/08/21 22:00:24;;;;;;;;;;;26.20;48.00;;;;;;8364721;28;20281;-49
2021/08/21 22:04:25;;;;;;;;;;;26.20;48.00;;;;;;8363776;28;19917;-47
2021/08/21 22:08:25;;;;;;;;;;;26.10;47.90;;;;;;8363367;28;20007;-47
2021/08/21 22:12:26;;;;;;;;;;;26.20;48.00;;;;;;8363722;28;20294;-49
2021/08/21 22:16:26;;;;;;;;;;;26.10;47.90;;;;;;8364232;28;19970;-48
2021/08/21 22:20:30;;;;;;;;;;;26.20;48.00;;;;;;8362703;28;19932;-47
2021/08/21 22:24:30;;;;;;;;;;;26.10;47.90;;;;;;8363075;28;20397;-48
2021/08/21 22:28:32;;;;;;;;;;;26.10;47.90;;;;;;8363256;28;19913;-48
2021/08/21 22:32:33;;;;;;;;;;;26.10;47.90;;;;;;8362525;28;20275;-47
2021/08/21 22:36:34;;;;;;;;;;;26.10;47.90;;;;;;8363657;28;19999;-48
2021/08/21 22:40:34;;;;;;;;;;;26.10;47.90;;;;;;8362715;28;19991;-48
2021/08/21 22:44:35;;;;;;;;;;;26.10;47.90;;;;;;8362404;28;19916;-47
2021/08/21 22:48:35;;;;;;;;;;;26.10;47.90;;;;;;8362750;28;20004;-47
2021/08/21 22:52:36;;;;;;;;;;;26.10;48.00;;;;;;8363450;28;20373;-47
2021/08/21 22:56:36;;;;;;;;;;;26.10;47.90;;;;;;8362255;28;19917;-47
2021/08/21 23:00:37;;;;;;;;;;;26.00;47.90;;;;;;8369144;28;19925;-47
2021/08/21 23:04:37;;;;;;;;;;;26.00;47.90;;;;;;8369353;28;19913;-48
2021/08/21 23:08:38;;;;;;;;;;;26.00;47.90;;;;;;8369598;28;19974;-48
2021/08/21 23:12:38;;;;;;;;;;;26.00;47.90;;;;;;8369189;28;19970;-47
2021/08/21 23:16:39;;;;;;;;;;;26.00;47.90;;;;;;8368861;28;19921;-46
2021/08/21 23:20:41;;;;;;;;;;;26.00;48.00;;;;;;8367885;28;20062;-46
2021/08/21 23:24:42;;;;;;;;;;;26.00;48.00;;;;;;8368434;28;19917;-47